createdAt,value
2022-08-20T00:04:56.902Z,100072.13
2022-08-20T00:14:59.919Z,100084.00
2022-08-20T00:25:04.597Z,100084.16
2022-08-20T00:35:07.457Z,100089.69
2022-08-20T00:45:18.204Z,100086.47
2022-08-20T00:55:27.475Z,100068.25
2022-08-20T01:05:33.956Z,100052.38
2022-08-20T01:15:43.026Z,100014.25
2022-08-20T01:26:12.734Z,100004.63
2022-08-20T01:36:17.879Z,99991.03
2022-08-20T01:46:20.868Z,99969.56
2022-08-20T01:56:29.939Z,99984.34
2022-08-20T02:06:38.004Z,99967.94
2022-08-20T02:16:43.427Z,99978.53
2022-08-20T02:26:55.385Z,99969.31
2022-08-20T02:36:58.008Z,99981.91
2022-08-20T02:47:01.198Z,99999.28
2022-08-20T02:57:05.206Z,99977.59
2022-08-20T03:07:08.042Z,99971.56
2022-08-20T03:17:10.889Z,99989.56
2022-08-20T03:27:13.921Z,99984.06
2022-08-20T03:37:16.940Z,99972.47
2022-08-20T03:47:20.599Z,99968.53
2022-08-20T03:57:23.942Z,99948.31
2022-08-20T04:07:27.226Z,99954.53
2022-08-20T04:17:29.866Z,99947.69
2022-08-20T04:27:35.566Z,99918.16
2022-08-20T04:37:42.451Z,99943.28
2022-08-20T04:47:46.698Z,99926.81
2022-08-20T04:57:49.109Z,99930.75
2022-08-20T05:07:52.111Z,99931.00
2022-08-20T05:17:57.706Z,99945.69
2022-08-20T05:28:09.433Z,99949.69
2022-08-20T05:38:18.496Z,99930.38
2022-08-20T05:48:23.502Z,99949.09
2022-08-20T05:58:28.657Z,99958.94
2022-08-20T06:08:32.490Z,99972.25
2022-08-20T06:18:35.232Z,99982.59
2022-08-20T06:28:37.932Z,99986.25
2022-08-20T06:38:40.923Z,100003.75
2022-08-20T06:48:45.194Z,100004.13
2022-08-20T06:58:47.856Z,100004.19
2022-08-20T07:08:51.878Z,100004.47
2022-08-20T07:18:58.652Z,100009.47
2022-08-20T07:29:01.179Z,100033.22
2022-08-20T07:39:05.831Z,100029.63
2022-08-20T07:49:14.738Z,100023.94
2022-08-20T07:59:18.296Z,100012.09
2022-08-20T08:09:20.696Z,100008.81
2022-08-20T08:19:24.397Z,100006.63
2022-08-20T08:29:31.232Z,99993.91
2022-08-20T08:39:37.253Z,99984.69
2022-08-20T08:49:40.228Z,99968.41
2022-08-20T08:59:46.213Z,99969.59
2022-08-20T09:10:07.413Z,99955.44
2022-08-20T09:20:11.376Z,99938.25
2022-08-20T09:30:15.895Z,99932.38
2022-08-20T09:40:22.522Z,99944.19
2022-08-20T09:50:31.172Z,99933.53
2022-08-20T10:00:33.629Z,99963.53
2022-08-20T10:10:36.339Z,99968.72
2022-08-20T10:20:38.981Z,99946.31
2022-08-20T10:30:41.510Z,99961.75
2022-08-20T10:40:46.129Z,99953.53
2022-08-20T10:50:55.175Z,99940.44
2022-08-20T11:00:57.750Z,99914.53
2022-08-20T11:11:00.183Z,99877.53
2022-08-20T11:21:03.043Z,99855.81
2022-08-20T11:31:05.868Z,99838.13
2022-08-20T11:41:08.942Z,99846.25
2022-08-20T11:51:12.103Z,99831.19
2022-08-20T12:01:14.983Z,99828.31
2022-08-20T12:11:17.891Z,99828.38
2022-08-20T12:21:21.998Z,99852.34
2022-08-20T12:31:24.896Z,99848.19
2022-08-20T12:41:27.896Z,99851.78
2022-08-20T12:51:31.252Z,99871.38
2022-08-20T13:01:45.224Z,99881.91
2022-08-20T13:11:47.842Z,99887.22
2022-08-20T13:21:55.152Z,99915.88
2022-08-20T13:31:57.860Z,99924.50
2022-08-20T13:42:00.834Z,99930.72
2022-08-20T13:52:03.826Z,99959.75
2022-08-20T14:02:08.121Z,99972.41
2022-08-20T14:12:11.767Z,99989.34
2022-08-20T14:22:18.041Z,99975.97
2022-08-20T14:32:21.991Z,99977.25
2022-08-20T14:43:22.241Z,99983.63
2022-08-20T14:52:59.612Z,100018.63
2022-08-20T15:03:02.474Z,100014.72
2022-08-20T15:13:07.073Z,99986.00
2022-08-20T15:23:13.067Z,99969.66
2022-08-20T15:33:15.587Z,99967.97
2022-08-20T15:43:18.147Z,99951.00
2022-08-20T15:54:10.207Z,99903.63
2022-08-20T16:04:17.972Z,99930.88
2022-08-20T16:14:25.620Z,99940.22
2022-08-20T16:24:28.890Z,99948.56
2022-08-20T16:34:54.293Z,99962.66
2022-08-20T16:44:57.537Z,99981.06
2022-08-20T16:55:00.212Z,100002.00
2022-08-20T17:05:04.766Z,99993.50
2022-08-20T17:15:19.613Z,100009.56
2022-08-20T17:25:32.397Z,100010.28
2022-08-20T17:35:44.108Z,99997.50
2022-08-20T17:45:50.304Z,99973.28
2022-08-20T17:55:58.570Z,99959.66
2022-08-20T18:06:11.648Z,99959.56
2022-08-20T18:16:23.840Z,99958.38
2022-08-20T18:26:47.072Z,99956.59
2022-08-20T18:37:00.656Z,99976.84
2022-08-20T18:47:05.927Z,99982.97
2022-08-20T18:57:46.969Z,99983.44
2022-08-20T19:07:52.298Z,99986.69
2022-08-20T19:17:55.021Z,99981.75
2022-08-20T19:28:17.850Z,99948.06
2022-08-20T19:38:28.823Z,99966.44
2022-08-20T19:49:00.340Z,99989.47
2022-08-20T19:59:05.763Z,99934.19
2022-08-20T20:09:17.997Z,99895.00
2022-08-20T20:19:26.730Z,99908.59
2022-08-20T20:29:36.380Z,99916.91
2022-08-20T20:39:45.689Z,99938.34
2022-08-20T20:49:57.873Z,99943.22
2022-08-20T21:00:00.604Z,99953.75
2022-08-20T21:10:10.191Z,99941.63
2022-08-20T21:20:13.851Z,99945.81
2022-08-20T21:30:19.660Z,99957.59
2022-08-20T21:40:24.500Z,99958.53
2022-08-20T21:50:31.094Z,99955.84
2022-08-20T22:00:55.098Z,99952.63
2022-08-20T22:10:58.303Z,99938.06
2022-08-20T22:21:01.534Z,99951.31
2022-08-20T22:31:04.933Z,99953.22
2022-08-20T22:41:09.885Z,99946.19
2022-08-20T22:51:38.720Z,99931.84
2022-08-20T23:01:41.588Z,99934.34
2022-08-20T23:11:44.168Z,99923.13
2022-08-20T23:21:46.618Z,99914.81
2022-08-20T23:31:49.040Z,99918.13
2022-08-20T23:41:51.705Z,99920.84
2022-08-20T23:51:54.290Z,99926.50
